METAR Data

Data at: 2244 UTC 22 Nov 2019

LOWL 222220Z AUTO VRB01KT 0450 R26/0650N FG SCT000 BKN001 02/02 Q1008

TAF AMD LOWL 221928Z 2219/2318 09004KT 6000 OVC006 TX11/2313Z TN04/2219Z
  TEMPO 2219/2306 VRB02KT 0200 FG VV001
  BECMG 2310/2312 09010KT 9999 OVC008
  TEMPO 2312/2318 10015G25KT SCT008